sensor_id;sensor_type;location;lat;lon;timestamp;pressure;altitude;pressure_sealevel;temperature;humidity
20825;BME280;10573;50.936;6.978;2023-04-09T00:00:33;102126.00;;;10.38;68.61
20825;BME280;10573;50.936;6.978;2023-04-09T00:02:58;102133.59;;;10.33;68.91
20825;BME280;10573;50.936;6.978;2023-04-09T00:05:24;102133.19;;;10.39;69.00
20825;BME280;10573;50.936;6.978;2023-04-09T00:07:49;102129.88;;;10.34;68.48
20825;BME280;10573;50.936;6.978;2023-04-09T00:10:15;102138.06;;;10.34;68.68
20825;BME280;10573;50.936;6.978;2023-04-09T00:12:40;102127.63;;;10.41;68.08
20825;BME280;10573;50.936;6.978;2023-04-09T00:15:06;102133.94;;;10.29;68.71
20825;BME280;10573;50.936;6.978;2023-04-09T00:17:32;102133.81;;;10.30;68.27
20825;BME280;10573;50.936;6.978;2023-04-09T00:19:57;102130.31;;;10.28;67.87
20825;BME280;10573;50.936;6.978;2023-04-09T00:22:23;102127.28;;;10.46;68.34
20825;BME280;10573;50.936;6.978;2023-04-09T00:24:48;102130.97;;;10.70;67.76
20825;BME280;10573;50.936;6.978;2023-04-09T00:27:14;102120.72;;;10.61;67.69
20825;BME280;10573;50.936;6.978;2023-04-09T00:29:39;102127.78;;;10.77;66.50
20825;BME280;10573;50.936;6.978;2023-04-09T00:32:05;102126.03;;;10.75;66.31
20825;BME280;10573;50.936;6.978;2023-04-09T00:34:30;102123.22;;;10.51;66.70
20825;BME280;10573;50.936;6.978;2023-04-09T00:36:56;102118.00;;;10.61;66.34
20825;BME280;10573;50.936;6.978;2023-04-09T00:39:21;102116.59;;;10.55;66.62
20825;BME280;10573;50.936;6.978;2023-04-09T00:41:46;102125.53;;;10.45;66.73
20825;BME280;10573;50.936;6.978;2023-04-09T00:44:12;102118.13;;;10.47;66.54
20825;BME280;10573;50.936;6.978;2023-04-09T00:46:37;102127.59;;;10.28;66.86
20825;BME280;10573;50.936;6.978;2023-04-09T00:49:04;102121.16;;;10.29;67.07
20825;BME280;10573;50.936;6.978;2023-04-09T00:51:30;102122.38;;;10.25;67.29
20825;BME280;10573;50.936;6.978;2023-04-09T00:53:55;102120.84;;;10.21;66.93
20825;BME280;10573;50.936;6.978;2023-04-09T00:56:22;102119.75;;;10.11;67.61
20825;BME280;10573;50.936;6.978;2023-04-09T00:58:48;102120.38;;;10.01;67.44
20825;BME280;10573;50.936;6.978;2023-04-09T01:01:13;102123.44;;;10.10;67.63
20825;BME280;10573;50.936;6.978;2023-04-09T01:03:39;102121.50;;;10.12;67.54
20825;BME280;10573;50.936;6.978;2023-04-09T01:06:09;102125.41;;;10.07;67.83
20825;BME280;10573;50.936;6.978;2023-04-09T01:08:59;102121.13;;;9.78;68.44
20825;BME280;10573;50.936;6.978;2023-04-09T01:14:00;102114.50;;;9.82;68.33
20825;BME280;10573;50.936;6.978;2023-04-09T01:16:28;102112.09;;;9.64;68.43
20825;BME280;10573;50.936;6.978;2023-04-09T01:18:58;102104.91;;;9.89;67.94
20825;BME280;10573;50.936;6.978;2023-04-09T01:21:31;102111.97;;;9.79;68.06
20825;BME280;10573;50.936;6.978;2023-04-09T01:28:53;102107.31;;;9.94;67.26
20825;BME280;10573;50.936;6.978;2023-04-09T01:31:25;102109.25;;;9.79;67.32
20825;BME280;10573;50.936;6.978;2023-04-09T01:33:52;102113.34;;;9.58;68.27
20825;BME280;10573;50.936;6.978;2023-04-09T01:36:18;102112.28;;;9.61;68.33
20825;BME280;10573;50.936;6.978;2023-04-09T01:38:46;102116.41;;;9.67;67.91
20825;BME280;10573;50.936;6.978;2023-04-09T01:41:18;102115.69;;;9.78;67.80
20825;BME280;10573;50.936;6.978;2023-04-09T01:43:45;102114.91;;;9.76;67.71
20825;BME280;10573;50.936;6.978;2023-04-09T01:46:12;102113.94;;;9.77;67.27
20825;BME280;10573;50.936;6.978;2023-04-09T01:48:40;102115.13;;;9.72;67.81
20825;BME280;10573;50.936;6.978;2023-04-09T01:51:06;102118.69;;;9.60;67.49
20825;BME280;10573;50.936;6.978;2023-04-09T01:53:32;102114.25;;;9.72;67.82
20825;BME280;10573;50.936;6.978;2023-04-09T01:56:00;102115.94;;;9.47;67.94
20825;BME280;10573;50.936;6.978;2023-04-09T01:58:26;102113.78;;;9.52;67.67
20825;BME280;10573;50.936;6.978;2023-04-09T02:03:48;102107.84;;;9.73;66.93
20825;BME280;10573;50.936;6.978;2023-04-09T02:09:06;102107.41;;;9.92;66.67
20825;BME280;10573;50.936;6.978;2023-04-09T02:11:33;102105.78;;;9.89;66.45
20825;BME280;10573;50.936;6.978;2023-04-09T02:14:03;102108.06;;;9.83;66.63
20825;BME280;10573;50.936;6.978;2023-04-09T02:16:30;102111.88;;;9.93;66.31
20825;BME280;10573;50.936;6.978;2023-04-09T02:18:57;102106.97;;;9.85;66.57
20825;BME280;10573;50.936;6.978;2023-04-09T02:21:26;102101.97;;;9.79;67.04
20825;BME280;10573;50.936;6.978;2023-04-09T02:23:53;102108.34;;;9.65;67.35
20825;BME280;10573;50.936;6.978;2023-04-09T02:26:20;102104.09;;;9.61;67.28
20825;BME280;10573;50.936;6.978;2023-04-09T02:28:45;102093.38;;;9.72;67.04
20825;BME280;10573;50.936;6.978;2023-04-09T02:31:11;102096.63;;;9.65;66.91
20825;BME280;10573;50.936;6.978;2023-04-09T02:33:36;102097.88;;;9.46;67.12
20825;BME280;10573;50.936;6.978;2023-04-09T02:36:02;102100.28;;;9.51;67.43
20825;BME280;10573;50.936;6.978;2023-04-09T02:38:27;102095.94;;;9.48;68.03
20825;BME280;10573;50.936;6.978;2023-04-09T02:40:52;102093.16;;;9.76;67.09
20825;BME280;10573;50.936;6.978;2023-04-09T02:43:18;102095.03;;;9.48;67.57
20825;BME280;10573;50.936;6.978;2023-04-09T02:45:43;102092.03;;;9.65;67.43
20825;BME280;10573;50.936;6.978;2023-04-09T02:48:08;102097.00;;;9.46;67.97
20825;BME280;10573;50.936;6.978;2023-04-09T02:50:34;102091.75;;;9.43;67.89
20825;BME280;10573;50.936;6.978;2023-04-09T02:52:59;102090.94;;;9.55;67.66
20825;BME280;10573;50.936;6.978;2023-04-09T02:55:25;102095.38;;;9.56;67.49
20825;BME280;10573;50.936;6.978;2023-04-09T02:57:50;102088.06;;;9.44;67.36
20825;BME280;10573;50.936;6.978;2023-04-09T03:00:16;102077.00;;;9.47;67.66
20825;BME280;10573;50.936;6.978;2023-04-09T03:02:41;102090.50;;;9.61;66.86
20825;BME280;10573;50.936;6.978;2023-04-09T03:05:07;102081.69;;;9.70;66.21
20825;BME280;10573;50.936;6.978;2023-04-09T03:07:32;102086.59;;;9.52;66.53
20825;BME280;10573;50.936;6.978;2023-04-09T03:09:58;102083.47;;;9.31;66.82
20825;BME280;10573;50.936;6.978;2023-04-09T03:12:23;102078.94;;;9.45;66.72
20825;BME280;10573;50.936;6.978;2023-04-09T03:14:49;102080.91;;;9.55;66.42
20825;BME280;10573;50.936;6.978;2023-04-09T03:17:14;102078.31;;;9.54;66.19
20825;BME280;10573;50.936;6.978;2023-04-09T03:19:39;102079.28;;;9.40;66.11
20825;BME280;10573;50.936;6.978;2023-04-09T03:22:05;102075.88;;;9.36;66.37
20825;BME280;10573;50.936;6.978;2023-04-09T03:24:31;102068.63;;;9.50;65.71
20825;BME280;10573;50.936;6.978;2023-04-09T03:26:57;102067.94;;;9.33;66.21
20825;BME280;10573;50.936;6.978;2023-04-09T03:29:22;102071.75;;;9.44;65.87
20825;BME280;10573;50.936;6.978;2023-04-09T03:31:48;102071.00;;;9.42;66.03
20825;BME280;10573;50.936;6.978;2023-04-09T03:34:13;102063.81;;;9.40;65.96
20825;BME280;10573;50.936;6.978;2023-04-09T03:36:39;102062.97;;;9.13;66.63
20825;BME280;10573;50.936;6.978;2023-04-09T03:39:04;102065.38;;;8.90;67.15
20825;BME280;10573;50.936;6.978;2023-04-09T03:41:29;102066.66;;;9.12;66.99
20825;BME280;10573;50.936;6.978;2023-04-09T03:43:55;102072.88;;;8.86;67.04
20825;BME280;10573;50.936;6.978;2023-04-09T03:46:20;102066.50;;;8.73;67.84
20825;BME280;10573;50.936;6.978;2023-04-09T03:48:46;102071.16;;;8.98;66.80
20825;BME280;10573;50.936;6.978;2023-04-09T03:51:12;102069.63;;;8.94;67.09
20825;BME280;10573;50.936;6.978;2023-04-09T03:53:38;102065.47;;;8.88;66.89
20825;BME280;10573;50.936;6.978;2023-04-09T03:56:04;102058.41;;;8.86;67.19
20825;BME280;10573;50.936;6.978;2023-04-09T03:58:30;102054.81;;;8.85;67.16
20825;BME280;10573;50.936;6.978;2023-04-09T04:00:55;102062.28;;;8.82;67.37
20825;BME280;10573;50.936;6.978;2023-04-09T04:03:21;102068.53;;;8.69;67.16
20825;BME280;10573;50.936;6.978;2023-04-09T04:05:46;102059.06;;;8.62;67.45
20825;BME280;10573;50.936;6.978;2023-04-09T04:08:11;102064.63;;;8.73;67.36
20825;BME280;10573;50.936;6.978;2023-04-09T04:10:37;102063.38;;;8.65;67.83
20825;BME280;10573;50.936;6.978;2023-04-09T04:13:02;102069.28;;;8.71;67.34
20825;BME280;10573;50.936;6.978;2023-04-09T04:15:28;102059.66;;;8.53;67.91
20825;BME280;10573;50.936;6.978;2023-04-09T04:17:53;102065.72;;;8.56;67.19
20825;BME280;10573;50.936;6.978;2023-04-09T04:20:19;102068.81;;;8.65;67.20
20825;BME280;10573;50.936;6.978;2023-04-09T04:22:45;102062.94;;;8.58;67.00
20825;BME280;10573;50.936;6.978;2023-04-09T04:25:10;102064.28;;;8.51;67.15
20825;BME280;10573;50.936;6.978;2023-04-09T04:27:36;102054.94;;;8.40;67.37
20825;BME280;10573;50.936;6.978;2023-04-09T04:30:01;102055.75;;;8.28;67.15
20825;BME280;10573;50.936;6.978;2023-04-09T04:32:27;102062.66;;;8.19;67.55
20825;BME280;10573;50.936;6.978;2023-04-09T04:34:52;102067.41;;;8.16;67.62
20825;BME280;10573;50.936;6.978;2023-04-09T04:37:18;102060.91;;;8.18;67.55
20825;BME280;10573;50.936;6.978;2023-04-09T04:39:43;102060.41;;;8.12;67.91
20825;BME280;10573;50.936;6.978;2023-04-09T04:42:09;102065.00;;;8.11;67.63
20825;BME280;10573;50.936;6.978;2023-04-09T04:44:34;102069.34;;;8.14;67.42
20825;BME280;10573;50.936;6.978;2023-04-09T04:47:00;102067.00;;;7.93;69.08
20825;BME280;10573;50.936;6.978;2023-04-09T04:49:25;102067.59;;;8.13;67.73
20825;BME280;10573;50.936;6.978;2023-04-09T04:51:50;102068.94;;;8.20;68.08
20825;BME280;10573;50.936;6.978;2023-04-09T04:54:16;102068.94;;;8.20;67.40
20825;BME280;10573;50.936;6.978;2023-04-09T04:56:41;102065.66;;;8.15;67.91
20825;BME280;10573;50.936;6.978;2023-04-09T04:59:06;102072.06;;;7.99;68.02
20825;BME280;10573;50.936;6.978;2023-04-09T05:01:32;102069.25;;;8.01;67.73
20825;BME280;10573;50.936;6.978;2023-04-09T05:03:57;102071.16;;;7.99;67.24
20825;BME280;10573;50.936;6.978;2023-04-09T05:06:23;102060.31;;;7.99;67.59
20825;BME280;10573;50.936;6.978;2023-04-09T05:08:48;102070.88;;;8.03;67.28
20825;BME280;10573;50.936;6.978;2023-04-09T05:11:13;102072.53;;;8.06;67.26
20825;BME280;10573;50.936;6.978;2023-04-09T05:13:41;102062.94;;;8.29;66.38
20825;BME280;10573;50.936;6.978;2023-04-09T05:16:06;102081.56;;;8.21;66.58
20825;BME280;10573;50.936;6.978;2023-04-09T05:18:32;102081.84;;;8.31;66.01
20825;BME280;10573;50.936;6.978;2023-04-09T05:20:57;102076.69;;;8.40;65.74
20825;BME280;10573;50.936;6.978;2023-04-09T05:23:23;102082.53;;;8.34;65.41
20825;BME280;10573;50.936;6.978;2023-04-09T05:25:48;102077.28;;;8.46;64.41
20825;BME280;10573;50.936;6.978;2023-04-09T05:28:14;102081.75;;;8.61;63.92
20825;BME280;10573;50.936;6.978;2023-04-09T05:30:44;102079.19;;;8.72;63.40
20825;BME280;10573;50.936;6.978;2023-04-09T05:33:10;102084.81;;;8.84;62.40
20825;BME280;10573;50.936;6.978;2023-04-09T05:35:39;102088.34;;;8.99;62.24
20825;BME280;10573;50.936;6.978;2023-04-09T05:38:04;102077.28;;;9.02;61.62
20825;BME280;10573;50.936;6.978;2023-04-09T05:40:30;102083.06;;;9.10;61.60
20825;BME280;10573;50.936;6.978;2023-04-09T05:42:55;102087.44;;;9.13;61.31
20825;BME280;10573;50.936;6.978;2023-04-09T05:45:21;102086.34;;;8.88;62.00
20825;BME280;10573;50.936;6.978;2023-04-09T05:47:46;102090.16;;;9.13;62.20
20825;BME280;10573;50.936;6.978;2023-04-09T05:50:11;102077.34;;;9.15;61.71
20825;BME280;10573;50.936;6.978;2023-04-09T05:52:37;102082.09;;;9.11;61.56
20825;BME280;10573;50.936;6.978;2023-04-09T05:55:03;102085.78;;;9.10;61.05
20825;BME280;10573;50.936;6.978;2023-04-09T05:57:29;102087.88;;;9.19;61.45
20825;BME280;10573;50.936;6.978;2023-04-09T05:59:56;102082.81;;;9.28;61.27
20825;BME280;10573;50.936;6.978;2023-04-09T06:02:21;102085.88;;;9.36;60.56
20825;BME280;10573;50.936;6.978;2023-04-09T06:04:47;102088.66;;;9.21;60.77
20825;BME280;10573;50.936;6.978;2023-04-09T06:07:12;102084.25;;;9.33;60.57
20825;BME280;10573;50.936;6.978;2023-04-09T06:09:37;102084.56;;;9.29;60.77
20825;BME280;10573;50.936;6.978;2023-04-09T06:12:03;102082.22;;;9.22;60.68
20825;BME280;10573;50.936;6.978;2023-04-09T06:14:29;102079.28;;;9.13;60.79
20825;BME280;10573;50.936;6.978;2023-04-09T06:16:58;102086.47;;;9.14;60.38
20825;BME280;10573;50.936;6.978;2023-04-09T06:19:23;102082.56;;;9.18;60.77
20825;BME280;10573;50.936;6.978;2023-04-09T06:21:48;102085.22;;;9.32;60.39
20825;BME280;10573;50.936;6.978;2023-04-09T06:24:14;102090.66;;;9.32;60.42
20825;BME280;10573;50.936;6.978;2023-04-09T06:26:39;102090.03;;;9.42;60.13
20825;BME280;10573;50.936;6.978;2023-04-09T06:29:05;102088.84;;;9.18;60.79
20825;BME280;10573;50.936;6.978;2023-04-09T06:31:31;102086.97;;;9.33;60.13
20825;BME280;10573;50.936;6.978;2023-04-09T06:33:56;102080.03;;;9.42;60.03
20825;BME280;10573;50.936;6.978;2023-04-09T06:36:22;102081.47;;;9.73;59.95
20825;BME280;10573;50.936;6.978;2023-04-09T06:38:47;102091.19;;;9.78;59.44
20825;BME280;10573;50.936;6.978;2023-04-09T06:41:12;102090.19;;;9.79;59.16
20825;BME280;10573;50.936;6.978;2023-04-09T06:43:39;102089.56;;;9.88;59.10
20825;BME280;10573;50.936;6.978;2023-04-09T06:46:05;102091.41;;;10.13;58.30
20825;BME280;10573;50.936;6.978;2023-04-09T06:48:30;102097.97;;;10.11;58.42
20825;BME280;10573;50.936;6.978;2023-04-09T06:50:55;102094.94;;;10.15;58.05
20825;BME280;10573;50.936;6.978;2023-04-09T06:53:21;102096.88;;;10.39;57.97
20825;BME280;10573;50.936;6.978;2023-04-09T06:55:46;102105.16;;;10.50;57.46
20825;BME280;10573;50.936;6.978;2023-04-09T06:58:12;102098.16;;;10.59;56.75
20825;BME280;10573;50.936;6.978;2023-04-09T07:00:37;102101.19;;;10.67;56.67
20825;BME280;10573;50.936;6.978;2023-04-09T07:03:03;102108.75;;;10.51;57.21
20825;BME280;10573;50.936;6.978;2023-04-09T07:05:29;102099.88;;;10.73;56.96
20825;BME280;10573;50.936;6.978;2023-04-09T07:07:55;102102.84;;;10.94;56.78
20825;BME280;10573;50.936;6.978;2023-04-09T07:10:20;102090.44;;;10.90;56.32
20825;BME280;10573;50.936;6.978;2023-04-09T07:12:46;102104.22;;;11.13;55.75
20825;BME280;10573;50.936;6.978;2023-04-09T07:15:11;102095.75;;;11.29;55.38
20825;BME280;10573;50.936;6.978;2023-04-09T07:17:36;102101.41;;;11.50;54.33
20825;BME280;10573;50.936;6.978;2023-04-09T07:20:02;102104.72;;;11.42;53.24
20825;BME280;10573;50.936;6.978;2023-04-09T07:22:28;102108.78;;;11.61;53.22
20825;BME280;10573;50.936;6.978;2023-04-09T07:24:55;102103.53;;;11.93;53.29
20825;BME280;10573;50.936;6.978;2023-04-09T07:27:25;102105.00;;;11.86;53.09
20825;BME280;10573;50.936;6.978;2023-04-09T07:29:55;102097.63;;;12.11;52.56
20825;BME280;10573;50.936;6.978;2023-04-09T07:32:22;102109.03;;;12.04;52.29
20825;BME280;10573;50.936;6.978;2023-04-09T07:34:47;102110.19;;;12.24;51.58
20825;BME280;10573;50.936;6.978;2023-04-09T07:37:12;102110.94;;;11.80;52.27
20825;BME280;10573;50.936;6.978;2023-04-09T07:39:38;102109.72;;;11.84;52.33
20825;BME280;10573;50.936;6.978;2023-04-09T07:42:04;102107.13;;;11.93;52.70
20825;BME280;10573;50.936;6.978;2023-04-09T07:44:34;102115.03;;;12.21;52.02
20825;BME280;10573;50.936;6.978;2023-04-09T07:47:01;102104.25;;;12.19;51.78
20825;BME280;10573;50.936;6.978;2023-04-09T07:49:26;102115.06;;;12.44;51.75
20825;BME280;10573;50.936;6.978;2023-04-09T07:51:52;102106.34;;;12.50;50.97
20825;BME280;10573;50.936;6.978;2023-04-09T07:54:18;102103.88;;;12.69;50.55
20825;BME280;10573;50.936;6.978;2023-04-09T07:56:45;102102.44;;;12.98;49.98
20825;BME280;10573;50.936;6.978;2023-04-09T07:59:11;102100.22;;;13.35;49.08
20825;BME280;10573;50.936;6.978;2023-04-09T08:01:36;102093.53;;;13.28;48.89
20825;BME280;10573;50.936;6.978;2023-04-09T08:04:02;102096.59;;;13.46;47.95
20825;BME280;10573;50.936;6.978;2023-04-09T08:06:28;102099.50;;;13.87;47.92
20825;BME280;10573;50.936;6.978;2023-04-09T08:08:53;102095.72;;;14.30;47.15
20825;BME280;10573;50.936;6.978;2023-04-09T08:11:18;102095.72;;;14.61;46.12
20825;BME280;10573;50.936;6.978;2023-04-09T08:13:50;102087.56;;;14.81;45.62
20825;BME280;10573;50.936;6.978;2023-04-09T08:16:16;102088.00;;;14.76;45.88
20825;BME280;10573;50.936;6.978;2023-04-09T08:18:41;102087.72;;;14.89;45.28
20825;BME280;10573;50.936;6.978;2023-04-09T08:21:07;102091.13;;;15.22;43.73
20825;BME280;10573;50.936;6.978;2023-04-09T08:23:32;102081.44;;;15.37;42.67
20825;BME280;10573;50.936;6.978;2023-04-09T08:25:57;102084.03;;;15.58;43.22
20825;BME280;10573;50.936;6.978;2023-04-09T08:28:23;102081.88;;;15.62;42.87
20825;BME280;10573;50.936;6.978;2023-04-09T08:30:48;102080.72;;;16.69;42.20
20825;BME280;10573;50.936;6.978;2023-04-09T08:33:14;102074.59;;;17.03;40.25
20825;BME280;10573;50.936;6.978;2023-04-09T08:35:40;102075.28;;;17.05;40.10
20825;BME280;10573;50.936;6.978;2023-04-09T08:38:06;102077.41;;;17.30;39.10
20825;BME280;10573;50.936;6.978;2023-04-09T08:40:35;102071.97;;;17.92;37.60
20825;BME280;10573;50.936;6.978;2023-04-09T08:43:04;102077.75;;;18.33;37.44
20825;BME280;10573;50.936;6.978;2023-04-09T08:45:30;102081.34;;;18.07;37.49
20825;BME280;10573;50.936;6.978;2023-04-09T08:47:56;102080.84;;;18.38;36.72
20825;BME280;10573;50.936;6.978;2023-04-09T08:50:25;102088.69;;;17.36;39.50
20825;BME280;10573;50.936;6.978;2023-04-09T08:52:52;102080.34;;;18.08;37.30
20825;BME280;10573;50.936;6.978;2023-04-09T08:55:17;102084.72;;;18.45;36.24
20825;BME280;10573;50.936;6.978;2023-04-09T08:57:42;102079.41;;;18.26;36.21
20825;BME280;10573;50.936;6.978;2023-04-09T09:00:08;102079.81;;;17.87;37.01
20825;BME280;10573;50.936;6.978;2023-04-09T09:02:34;102068.50;;;18.42;37.28
20825;BME280;10573;50.936;6.978;2023-04-09T09:05:01;102068.25;;;18.78;36.03
20825;BME280;10573;50.936;6.978;2023-04-09T09:07:27;102062.66;;;18.88;35.92
20825;BME280;10573;50.936;6.978;2023-04-09T09:09:58;102058.75;;;19.24;33.25
20825;BME280;10573;50.936;6.978;2023-04-09T09:12:38;102047.38;;;19.35;32.88
20825;BME280;10573;50.936;6.978;2023-04-09T09:15:23;102053.25;;;19.82;31.99
20825;BME280;10573;50.936;6.978;2023-04-09T09:17:57;102053.06;;;19.58;32.23
20825;BME280;10573;50.936;6.978;2023-04-09T09:20:24;102045.94;;;20.14;31.02
20825;BME280;10573;50.936;6.978;2023-04-09T09:22:53;102044.94;;;19.57;31.13
20825;BME280;10573;50.936;6.978;2023-04-09T09:25:18;102048.41;;;19.75;30.94
20825;BME280;10573;50.936;6.978;2023-04-09T09:27:51;102036.31;;;19.52;30.65
20825;BME280;10573;50.936;6.978;2023-04-09T09:30:26;102043.72;;;19.10;30.59
20825;BME280;10573;50.936;6.978;2023-04-09T09:32:53;102035.94;;;19.55;30.58
20825;BME280;10573;50.936;6.978;2023-04-09T09:35:19;102037.66;;;19.23;31.61
20825;BME280;10573;50.936;6.978;2023-04-09T09:37:44;102050.59;;;18.55;32.33
20825;BME280;10573;50.936;6.978;2023-04-09T09:40:25;102033.88;;;19.90;31.73
20825;BME280;10573;50.936;6.978;2023-04-09T09:42:55;102031.25;;;20.13;31.70
20825;BME280;10573;50.936;6.978;2023-04-09T09:45:23;102026.69;;;20.68;30.15
20825;BME280;10573;50.936;6.978;2023-04-09T09:47:48;102026.63;;;20.85;29.29
20825;BME280;10573;50.936;6.978;2023-04-09T09:50:14;102028.22;;;20.79;29.28
20825;BME280;10573;50.936;6.978;2023-04-09T09:52:41;102027.59;;;20.92;29.56
20825;BME280;10573;50.936;6.978;2023-04-09T09:55:09;102027.31;;;20.47;30.26
20825;BME280;10573;50.936;6.978;2023-04-09T09:57:38;102013.94;;;20.59;30.18
20825;BME280;10573;50.936;6.978;2023-04-09T10:00:06;102015.28;;;21.26;29.17
20825;BME280;10573;50.936;6.978;2023-04-09T10:02:38;102018.31;;;21.31;29.62
20825;BME280;10573;50.936;6.978;2023-04-09T10:05:05;102020.00;;;21.17;29.03
20825;BME280;10573;50.936;6.978;2023-04-09T10:07:31;102016.44;;;21.55;28.56
20825;BME280;10573;50.936;6.978;2023-04-09T10:09:57;102007.41;;;21.53;28.40
20825;BME280;10573;50.936;6.978;2023-04-09T10:12:24;102010.19;;;22.21;28.39
20825;BME280;10573;50.936;6.978;2023-04-09T10:14:51;102000.06;;;22.43;27.34
20825;BME280;10573;50.936;6.978;2023-04-09T10:17:28;102006.03;;;21.57;29.14
20825;BME280;10573;50.936;6.978;2023-04-09T10:20:00;101993.44;;;21.99;28.24
20825;BME280;10573;50.936;6.978;2023-04-09T10:22:31;102010.44;;;21.20;28.65
20825;BME280;10573;50.936;6.978;2023-04-09T10:24:58;102008.56;;;20.18;29.98
20825;BME280;10573;50.936;6.978;2023-04-09T10:27:25;102006.34;;;20.13;31.17
20825;BME280;10573;50.936;6.978;2023-04-09T10:29:52;102017.47;;;19.88;32.36
20825;BME280;10573;50.936;6.978;2023-04-09T10:32:19;102018.91;;;21.03;30.74
20825;BME280;10573;50.936;6.978;2023-04-09T10:34:45;101996.22;;;22.59;28.68
20825;BME280;10573;50.936;6.978;2023-04-09T10:37:19;102001.59;;;22.82;28.56
20825;BME280;10573;50.936;6.978;2023-04-09T10:39:46;101994.94;;;22.98;28.36
20825;BME280;10573;50.936;6.978;2023-04-09T10:42:38;101986.94;;;22.73;27.92
20825;BME280;10573;50.936;6.978;2023-04-09T10:45:11;101994.34;;;21.61;29.04
20825;BME280;10573;50.936;6.978;2023-04-09T10:47:39;101995.72;;;21.81;29.22
20825;BME280;10573;50.936;6.978;2023-04-09T10:50:24;101995.56;;;22.12;29.14
20825;BME280;10573;50.936;6.978;2023-04-09T10:52:53;101995.47;;;21.29;28.89
20825;BME280;10573;50.936;6.978;2023-04-09T10:58:03;101982.03;;;22.54;28.12
20825;BME280;10573;50.936;6.978;2023-04-09T11:00:29;101982.34;;;22.81;27.25
20825;BME280;10573;50.936;6.978;2023-04-09T11:03:12;101980.28;;;23.83;26.51
20825;BME280;10573;50.936;6.978;2023-04-09T11:05:46;101977.94;;;23.58;26.70
20825;BME280;10573;50.936;6.978;2023-04-09T11:08:13;101988.47;;;22.24;28.48
20825;BME280;10573;50.936;6.978;2023-04-09T11:10:40;101985.28;;;22.42;28.42
20825;BME280;10573;50.936;6.978;2023-04-09T11:13:13;101975.78;;;21.01;30.26
20825;BME280;10573;50.936;6.978;2023-04-09T11:15:39;101974.63;;;21.56;29.52
20825;BME280;10573;50.936;6.978;2023-04-09T11:18:04;101974.59;;;22.76;28.24
20825;BME280;10573;50.936;6.978;2023-04-09T11:20:38;101958.03;;;23.26;26.57
20825;BME280;10573;50.936;6.978;2023-04-09T11:23:04;101955.19;;;24.04;25.92
20825;BME280;10573;50.936;6.978;2023-04-09T11:25:31;101958.28;;;24.23;25.13
20825;BME280;10573;50.936;6.978;2023-04-09T11:27:58;101953.75;;;23.87;25.80
20825;BME280;10573;50.936;6.978;2023-04-09T11:30:24;101952.81;;;24.01;25.20
20825;BME280;10573;50.936;6.978;2023-04-09T11:32:49;101945.16;;;23.03;27.04
20825;BME280;10573;50.936;6.978;2023-04-09T11:35:17;101957.44;;;22.51;27.62
20825;BME280;10573;50.936;6.978;2023-04-09T11:37:43;101957.91;;;22.98;27.20
20825;BME280;10573;50.936;6.978;2023-04-09T11:40:19;101954.97;;;21.66;28.68
20825;BME280;10573;50.936;6.978;2023-04-09T11:42:47;101954.56;;;22.29;28.84
20825;BME280;10573;50.936;6.978;2023-04-09T11:45:14;101948.03;;;23.60;26.69
20825;BME280;10573;50.936;6.978;2023-04-09T11:47:40;101944.78;;;23.28;26.82
20825;BME280;10573;50.936;6.978;2023-04-09T11:50:08;101952.28;;;22.69;27.52
20825;BME280;10573;50.936;6.978;2023-04-09T11:52:34;101955.31;;;20.78;30.16
20825;BME280;10573;50.936;6.978;2023-04-09T11:55:05;101965.66;;;21.31;29.64
20825;BME280;10573;50.936;6.978;2023-04-09T11:57:38;101953.06;;;21.67;28.33
20825;BME280;10573;50.936;6.978;2023-04-09T12:00:23;101936.50;;;23.13;26.82
20825;BME280;10573;50.936;6.978;2023-04-09T12:02:50;101951.09;;;22.78;28.06
20825;BME280;10573;50.936;6.978;2023-04-09T12:05:24;101938.38;;;23.27;27.04
20825;BME280;10573;50.936;6.978;2023-04-09T12:07:51;101946.69;;;23.84;26.35
20825;BME280;10573;50.936;6.978;2023-04-09T12:10:17;101946.44;;;24.62;25.86
20825;BME280;10573;50.936;6.978;2023-04-09T12:12:44;101946.50;;;23.07;28.08
20825;BME280;10573;50.936;6.978;2023-04-09T12:15:23;101943.91;;;24.74;25.62
20825;BME280;10573;50.936;6.978;2023-04-09T12:17:58;101942.94;;;25.42;25.27
20825;BME280;10573;50.936;6.978;2023-04-09T12:20:32;101936.38;;;25.95;23.98
20825;BME280;10573;50.936;6.978;2023-04-09T12:22:58;101932.56;;;25.83;24.24
20825;BME280;10573;50.936;6.978;2023-04-09T12:25:25;101943.69;;;25.90;23.91
20825;BME280;10573;50.936;6.978;2023-04-09T12:27:50;101938.69;;;26.25;23.19
20825;BME280;10573;50.936;6.978;2023-04-09T12:30:16;101923.34;;;25.83;24.06
20825;BME280;10573;50.936;6.978;2023-04-09T12:32:41;101926.41;;;25.41;23.96
20825;BME280;10573;50.936;6.978;2023-04-09T12:35:09;101924.16;;;26.49;23.02
20825;BME280;10573;50.936;6.978;2023-04-09T12:37:34;101931.34;;;26.31;23.38
20825;BME280;10573;50.936;6.978;2023-04-09T12:40:00;101932.03;;;24.04;25.47
20825;BME280;10573;50.936;6.978;2023-04-09T12:42:25;101931.91;;;23.27;26.73
20825;BME280;10573;50.936;6.978;2023-04-09T12:44:50;101934.00;;;22.60;27.29
20825;BME280;10573;50.936;6.978;2023-04-09T12:47:16;101938.81;;;21.32;28.48
20825;BME280;10573;50.936;6.978;2023-04-09T12:49:42;101942.16;;;21.65;28.54
20825;BME280;10573;50.936;6.978;2023-04-09T12:52:10;101942.09;;;21.12;29.21
20825;BME280;10573;50.936;6.978;2023-04-09T12:54:35;101936.38;;;23.00;27.29
20825;BME280;10573;50.936;6.978;2023-04-09T12:57:00;101935.31;;;23.79;25.76
20825;BME280;10573;50.936;6.978;2023-04-09T12:59:26;101920.22;;;23.32;26.66
20825;BME280;10573;50.936;6.978;2023-04-09T13:01:51;101925.63;;;24.03;26.40
20825;BME280;10573;50.936;6.978;2023-04-09T13:04:16;101926.41;;;23.62;26.21
20825;BME280;10573;50.936;6.978;2023-04-09T13:06:42;101923.16;;;24.28;25.77
20825;BME280;10573;50.936;6.978;2023-04-09T13:09:07;101920.31;;;24.70;24.88